Time;durP1;ratioP1;P1;durP2;ratioP2;P2;SDS_P1;SDS_P2;PMS_P1;PMS_P2;Temp;Humidity;BMP_temperature;BMP_pressure;BME280_temperature;BME280_humidity;BME280_pressure;Samples;Min_cycle;Max_cycle;Signal;HPM_P1;HPM_P2
2022/12/28 00:02:21;;;;;;;;;;;3.30;99.90;;;;;;5052433;28;19964;-62
2022/12/28 00:04:49;;;;;;;;;;;3.30;99.90;;;;;;5057340;28;19925;-63
2022/12/28 00:07:17;;;;;;;;;;;3.30;99.90;;;;;;5055748;28;19951;-62
2022/12/28 00:09:46;;;;;;;;;;;3.30;99.90;;;;;;5076856;22;19933;-65
2022/12/28 00:12:14;;;;;;;;;;;3.30;99.90;;;;;;5043661;28;19929;-63
2022/12/28 00:14:42;;;;;;;;;;;3.30;99.90;;;;;;5053559;28;20007;-63
2022/12/28 00:17:12;;;;;;;;;;;3.20;99.90;;;;;;5050569;28;19947;-63
2022/12/28 00:19:42;;;;;;;;;;;3.30;99.90;;;;;;5039044;28;19929;-63
2022/12/28 00:22:10;;;;;;;;;;;3.30;99.90;;;;;;5048245;28;20402;-65
2022/12/28 00:24:48;;;;;;;;;;;3.30;99.90;;;;;;5012466;28;20373;-64
2022/12/28 00:27:16;;;;;;;;;;;3.30;99.90;;;;;;5024111;28;19925;-65
2022/12/28 00:29:44;;;;;;;;;;;3.40;99.90;;;;;;5025003;28;19935;-65
2022/12/28 00:32:11;;;;;;;;;;;3.50;99.90;;;;;;5033328;28;19947;-62
2022/12/28 00:34:39;;;;;;;;;;;3.40;99.90;;;;;;5039698;28;20027;-63
2022/12/28 00:37:07;;;;;;;;;;;3.40;99.90;;;;;;5040194;28;19925;-64
2022/12/28 00:39:40;;;;;;;;;;;3.40;99.90;;;;;;5038112;28;19925;-63
2022/12/28 00:42:10;;;;;;;;;;;3.40;99.90;;;;;;5013165;28;19951;-63
2022/12/28 00:44:37;;;;;;;;;;;3.50;99.90;;;;;;5029710;28;19931;-63
2022/12/28 00:47:05;;;;;;;;;;;3.50;99.90;;;;;;5031755;28;19963;-64
2022/12/28 00:49:33;;;;;;;;;;;3.50;99.90;;;;;;5031868;28;19924;-63
2022/12/28 00:52:00;;;;;;;;;;;3.50;99.90;;;;;;5039996;28;20015;-63
2022/12/28 00:54:29;;;;;;;;;;;3.40;99.90;;;;;;5029930;28;19936;-63
2022/12/28 00:57:11;;;;;;;;;;;3.50;99.90;;;;;;5034967;28;19926;-63
2022/12/28 00:59:39;;;;;;;;;;;3.50;99.90;;;;;;5022085;28;19964;-64
2022/12/28 01:02:06;;;;;;;;;;;3.50;99.90;;;;;;5012981;28;19932;-63
2022/12/28 01:04:34;;;;;;;;;;;3.50;99.90;;;;;;5020418;28;20076;-63
2022/12/28 01:07:02;;;;;;;;;;;3.40;99.90;;;;;;5033417;28;19947;-63
2022/12/28 01:09:30;;;;;;;;;;;3.40;99.90;;;;;;5038799;28;20067;-64
2022/12/28 01:11:58;;;;;;;;;;;3.40;99.90;;;;;;5040400;28;20020;-64
2022/12/28 01:14:27;;;;;;;;;;;3.40;99.90;;;;;;5037379;28;20024;-64
2022/12/28 01:16:54;;;;;;;;;;;3.30;99.90;;;;;;5031161;28;20023;-64
2022/12/28 01:19:22;;;;;;;;;;;3.30;99.90;;;;;;5032623;28;19933;-64
2022/12/28 01:21:51;;;;;;;;;;;3.20;99.90;;;;;;5034780;28;20385;-64
2022/12/28 01:24:19;;;;;;;;;;;3.20;99.90;;;;;;5038163;28;19925;-64
2022/12/28 01:26:46;;;;;;;;;;;3.20;99.90;;;;;;5055234;28;20040;-64
2022/12/28 01:29:14;;;;;;;;;;;3.20;99.90;;;;;;5055131;28;20367;-63
2022/12/28 01:31:43;;;;;;;;;;;3.20;99.90;;;;;;5039960;28;19955;-64
2022/12/28 01:34:11;;;;;;;;;;;3.20;99.90;;;;;;5032771;28;20016;-64
2022/12/28 01:36:39;;;;;;;;;;;3.20;99.90;;;;;;5030745;28;20021;-64
2022/12/28 01:39:06;;;;;;;;;;;3.30;99.90;;;;;;5037188;28;19935;-62
2022/12/28 01:41:37;;;;;;;;;;;3.30;99.90;;;;;;5052621;28;19925;-63
2022/12/28 01:44:23;;;;;;;;;;;3.30;99.90;;;;;;5055254;28;19947;-64
2022/12/28 01:46:53;;;;;;;;;;;3.30;99.90;;;;;;5028813;28;20020;-64
2022/12/28 01:49:24;;;;;;;;;;;3.50;99.90;;;;;;5023461;28;19925;-65
2022/12/28 01:51:53;;;;;;;;;;;3.60;99.90;;;;;;5028523;28;20023;-65
2022/12/28 01:54:24;;;;;;;;;;;3.70;99.90;;;;;;5052695;28;20015;-65
2022/12/28 01:56:52;;;;;;;;;;;3.70;99.90;;;;;;5040029;28;19929;-65
2022/12/28 01:59:21;;;;;;;;;;;3.60;99.90;;;;;;5032396;28;19925;-64
2022/12/28 02:01:49;;;;;;;;;;;3.70;99.90;;;;;;5029831;28;20019;-65
2022/12/28 02:04:18;;;;;;;;;;;3.70;99.90;;;;;;5036094;28;19936;-64
2022/12/28 02:06:47;;;;;;;;;;;3.70;99.90;;;;;;5039964;28;19925;-65
2022/12/28 02:09:17;;;;;;;;;;;3.90;99.90;;;;;;5041702;28;19924;-65
2022/12/28 02:11:45;;;;;;;;;;;3.80;99.90;;;;;;5053872;28;19967;-64
2022/12/28 02:14:13;;;;;;;;;;;4.00;99.90;;;;;;5030613;28;19972;-65
2022/12/28 02:16:42;;;;;;;;;;;4.30;99.90;;;;;;5038993;28;20075;-65
2022/12/28 02:19:12;;;;;;;;;;;4.50;99.90;;;;;;5041204;28;19995;-65
2022/12/28 02:21:48;;;;;;;;;;;4.60;99.90;;;;;;5036112;28;20011;-65
2022/12/28 02:24:25;;;;;;;;;;;4.60;99.90;;;;;;5033850;28;20337;-65
2022/12/28 02:26:56;;;;;;;;;;;4.60;99.90;;;;;;5041154;28;19963;-64
2022/12/28 02:29:38;;;;;;;;;;;4.60;99.90;;;;;;5033818;28;20020;-64
2022/12/28 02:32:15;;;;;;;;;;;4.40;99.90;;;;;;5020880;28;20310;-65
2022/12/28 02:34:47;;;;;;;;;;;4.40;99.90;;;;;;5025791;28;19929;-64
2022/12/28 02:37:16;;;;;;;;;;;4.40;99.90;;;;;;5033157;28;19925;-65
2022/12/28 02:39:47;;;;;;;;;;;4.40;99.90;;;;;;5037753;28;20428;-65
2022/12/28 02:42:16;;;;;;;;;;;4.30;99.90;;;;;;5041592;28;19925;-65
2022/12/28 02:50:17;;;;;;;;;;;4.00;99.90;;;;;;5030634;28;19931;-64
2022/12/28 02:53:02;;;;;;;;;;;3.90;99.90;;;;;;5035393;28;19933;-65
2022/12/28 02:58:41;;;;;;;;;;;4.00;99.90;;;;;;5031528;28;19957;-64
2022/12/28 03:01:16;;;;;;;;;;;3.90;99.90;;;;;;5036207;28;20386;-64
2022/12/28 03:03:49;;;;;;;;;;;3.90;99.90;;;;;;5039185;28;19925;-64
2022/12/28 03:09:12;;;;;;;;;;;3.90;99.90;;;;;;5032652;28;19967;-64
2022/12/28 03:11:42;;;;;;;;;;;3.90;99.90;;;;;;5025228;28;20021;-64
2022/12/28 03:14:13;;;;;;;;;;;3.90;99.90;;;;;;5032163;28;20369;-65
2022/12/28 03:33:24;;;;;;;;;;;3.90;99.90;;;;;;5025248;28;19925;-65
2022/12/28 03:35:58;;;;;;;;;;;3.90;99.90;;;;;;5024431;28;19933;-65
2022/12/28 03:38:29;;;;;;;;;;;4.10;99.90;;;;;;5031243;28;20020;-65
2022/12/28 03:41:02;;;;;;;;;;;4.10;99.90;;;;;;5033853;28;19929;-64
2022/12/28 03:43:40;;;;;;;;;;;3.90;99.90;;;;;;5038793;28;19925;-65
2022/12/28 03:46:12;;;;;;;;;;;3.90;99.90;;;;;;5031794;28;19932;-65
2022/12/28 03:48:40;;;;;;;;;;;4.00;99.90;;;;;;5028787;28;19932;-65
2022/12/28 03:51:09;;;;;;;;;;;4.00;99.90;;;;;;5031874;28;20017;-65
2022/12/28 03:53:38;;;;;;;;;;;4.00;99.90;;;;;;5034245;28;19979;-65
2022/12/28 03:56:07;;;;;;;;;;;4.10;99.90;;;;;;5040610;28;19956;-65
2022/12/28 03:58:35;;;;;;;;;;;4.20;99.90;;;;;;5032661;28;19925;-65
2022/12/28 04:01:03;;;;;;;;;;;4.10;99.90;;;;;;5024873;28;20355;-65
2022/12/28 04:03:32;;;;;;;;;;;4.10;99.90;;;;;;5024146;28;19929;-65
2022/12/28 04:06:00;;;;;;;;;;;4.10;99.90;;;;;;5024274;28;19936;-64
2022/12/28 04:08:29;;;;;;;;;;;4.10;99.90;;;;;;5038026;28;20297;-65
2022/12/28 04:10:58;;;;;;;;;;;4.10;99.90;;;;;;5022544;28;19926;-65
2022/12/28 04:13:28;;;;;;;;;;;4.10;99.90;;;;;;5034033;28;19949;-65
2022/12/28 04:15:56;;;;;;;;;;;4.30;99.90;;;;;;5029882;28;19937;-65
2022/12/28 04:18:24;;;;;;;;;;;4.40;99.90;;;;;;5038995;28;20011;-65
2022/12/28 04:20:52;;;;;;;;;;;4.30;99.90;;;;;;5028802;28;20019;-65
2022/12/28 04:23:20;;;;;;;;;;;4.30;99.90;;;;;;5028447;28;19952;-65
2022/12/28 04:25:57;;;;;;;;;;;4.40;99.90;;;;;;5025108;28;19925;-64
2022/12/28 04:28:25;;;;;;;;;;;4.30;99.90;;;;;;5035540;28;20394;-65
2022/12/28 04:30:53;;;;;;;;;;;4.30;99.90;;;;;;5046426;28;19975;-66
2022/12/28 04:33:21;;;;;;;;;;;4.30;99.90;;;;;;5031889;28;19925;-65
2022/12/28 04:35:48;;;;;;;;;;;4.30;99.90;;;;;;5032644;28;20015;-65
2022/12/28 04:38:16;;;;;;;;;;;4.30;99.90;;;;;;5035034;28;19932;-65
2022/12/28 04:40:44;;;;;;;;;;;4.30;99.90;;;;;;5026681;28;19925;-65
2022/12/28 04:43:13;;;;;;;;;;;4.40;99.90;;;;;;5029645;28;20485;-66
2022/12/28 04:45:41;;;;;;;;;;;4.50;99.90;;;;;;5035849;28;19926;-65
2022/12/28 04:48:08;;;;;;;;;;;4.50;99.90;;;;;;5030586;28;19931;-65
2022/12/28 04:50:37;;;;;;;;;;;4.50;99.90;;;;;;5026743;28;19925;-65
2022/12/28 04:53:05;;;;;;;;;;;4.40;99.90;;;;;;5032744;28;19932;-65
2022/12/28 04:55:33;;;;;;;;;;;4.30;99.90;;;;;;5035249;28;20019;-66
2022/12/28 04:58:01;;;;;;;;;;;4.40;99.90;;;;;;5026595;28;19931;-65
2022/12/28 05:00:30;;;;;;;;;;;4.40;99.90;;;;;;5030752;28;19926;-66
2022/12/28 05:02:58;;;;;;;;;;;4.40;99.90;;;;;;5027620;28;21541;-65
2022/12/28 05:05:26;;;;;;;;;;;4.50;99.90;;;;;;5027969;28;20462;-66
2022/12/28 05:07:54;;;;;;;;;;;4.40;99.90;;;;;;5033791;28;20351;-65
2022/12/28 05:10:22;;;;;;;;;;;4.60;99.90;;;;;;5030681;28;19931;-65
2022/12/28 05:12:49;;;;;;;;;;;4.70;99.90;;;;;;5043365;28;19925;-65
2022/12/28 05:15:18;;;;;;;;;;;4.80;99.90;;;;;;5026665;28;19925;-65
2022/12/28 05:17:47;;;;;;;;;;;4.70;99.90;;;;;;5041654;28;19968;-65
2022/12/28 05:20:16;;;;;;;;;;;4.60;99.90;;;;;;5031282;28;19925;-65
2022/12/28 05:22:44;;;;;;;;;;;4.70;99.90;;;;;;5039871;28;19931;-65
2022/12/28 05:25:12;;;;;;;;;;;4.60;99.90;;;;;;5029111;28;19947;-65
2022/12/28 05:27:40;;;;;;;;;;;4.70;99.90;;;;;;5016078;28;19971;-65
2022/12/28 05:30:08;;;;;;;;;;;4.70;99.90;;;;;;5022797;28;19953;-65
2022/12/28 05:32:36;;;;;;;;;;;4.70;99.90;;;;;;5030684;28;20012;-65
2022/12/28 05:35:05;;;;;;;;;;;4.70;99.90;;;;;;5011631;28;19926;-65
2022/12/28 05:37:33;;;;;;;;;;;4.70;99.90;;;;;;5020847;28;20024;-65
2022/12/28 05:40:01;;;;;;;;;;;4.60;99.90;;;;;;5026739;28;19949;-65
2022/12/28 05:42:28;;;;;;;;;;;4.60;99.90;;;;;;5043105;28;19932;-65
2022/12/28 05:44:56;;;;;;;;;;;4.70;99.90;;;;;;5030249;28;20007;-66
2022/12/28 05:47:24;;;;;;;;;;;4.70;99.90;;;;;;5027479;28;19932;-65
2022/12/28 05:49:51;;;;;;;;;;;4.80;99.90;;;;;;5034513;28;20015;-66
2022/12/28 05:52:20;;;;;;;;;;;4.80;99.90;;;;;;5042461;28;20020;-65
2022/12/28 05:54:48;;;;;;;;;;;4.90;99.90;;;;;;5027802;28;20012;-66
2022/12/28 05:57:16;;;;;;;;;;;4.90;99.90;;;;;;5030860;28;20345;-65
2022/12/28 05:59:43;;;;;;;;;;;4.80;99.90;;;;;;5033940;28;19925;-65
2022/12/28 06:02:11;;;;;;;;;;;4.80;99.90;;;;;;5035043;28;19945;-65
2022/12/28 06:04:40;;;;;;;;;;;5.00;99.90;;;;;;5027703;28;19924;-65
2022/12/28 06:07:07;;;;;;;;;;;5.10;99.90;;;;;;5036171;28;20024;-65
2022/12/28 06:09:36;;;;;;;;;;;5.00;99.90;;;;;;5045592;22;20086;-61
2022/12/28 06:12:05;;;;;;;;;;;5.00;99.90;;;;;;5031921;28;19968;-62
2022/12/28 06:14:33;;;;;;;;;;;5.10;99.90;;;;;;5032932;28;19968;-61
2022/12/28 06:17:01;;;;;;;;;;;5.20;99.90;;;;;;5029994;28;19936;-62
2022/12/28 06:19:28;;;;;;;;;;;5.00;99.90;;;;;;5020309;28;19933;-62
2022/12/28 06:21:56;;;;;;;;;;;5.00;99.90;;;;;;5017069;28;19936;-62
2022/12/28 06:24:24;;;;;;;;;;;5.10;99.90;;;;;;5014472;28;20012;-62
2022/12/28 06:26:53;;;;;;;;;;;5.00;99.90;;;;;;5012884;28;19931;-61
2022/12/28 06:29:20;;;;;;;;;;;5.10;99.90;;;;;;5013377;28;19931;-62
2022/12/28 06:31:50;;;;;;;;;;;5.10;99.90;;;;;;5021181;28;19929;-62
2022/12/28 06:34:18;;;;;;;;;;;5.20;99.90;;;;;;5012419;28;20492;-62
2022/12/28 06:36:45;;;;;;;;;;;5.20;99.90;;;;;;5017987;28;20402;-62
2022/12/28 06:39:14;;;;;;;;;;;5.30;99.90;;;;;;5011760;28;19929;-62
2022/12/28 06:41:42;;;;;;;;;;;5.40;99.90;;;;;;5014622;28;19925;-61
2022/12/28 06:44:13;;;;;;;;;;;5.40;99.90;;;;;;5014892;28;19926;-61
2022/12/28 06:46:40;;;;;;;;;;;5.30;99.90;;;;;;5018476;28;20301;-61
2022/12/28 06:49:08;;;;;;;;;;;5.40;99.90;;;;;;5012647;28;19926;-62
2022/12/28 06:51:39;;;;;;;;;;;5.50;99.90;;;;;;5015875;28;19929;-62
2022/12/28 06:54:07;;;;;;;;;;;5.70;99.90;;;;;;5014515;28;19972;-62
2022/12/28 06:56:35;;;;;;;;;;;5.60;99.90;;;;;;5024978;28;19952;-63
2022/12/28 06:59:03;;;;;;;;;;;5.60;99.90;;;;;;5011444;28;20387;-62
2022/12/28 07:01:33;;;;;;;;;;;5.60;99.90;;;;;;5011645;28;19988;-62
2022/12/28 07:04:02;;;;;;;;;;;5.60;99.90;;;;;;5010520;28;19926;-63
2022/12/28 07:06:33;;;;;;;;;;;5.70;99.90;;;;;;5021501;28;19926;-62
2022/12/28 07:09:01;;;;;;;;;;;5.50;99.90;;;;;;5015252;28;19925;-62
2022/12/28 07:11:29;;;;;;;;;;;5.60;99.90;;;;;;5025136;28;19926;-62
2022/12/28 07:13:57;;;;;;;;;;;5.60;99.90;;;;;;5013169;28;19925;-62
2022/12/28 07:16:26;;;;;;;;;;;5.60;99.90;;;;;;5012280;28;20024;-62
2022/12/28 07:18:56;;;;;;;;;;;5.60;99.90;;;;;;5008245;28;19941;-61
2022/12/28 07:21:24;;;;;;;;;;;5.60;99.90;;;;;;5014044;28;20398;-62
2022/12/28 07:23:53;;;;;;;;;;;5.60;99.90;;;;;;5010234;28;19925;-62
2022/12/28 07:26:22;;;;;;;;;;;5.60;99.90;;;;;;5012476;28;20067;-63
2022/12/28 07:28:50;;;;;;;;;;;5.60;99.90;;;;;;5012092;28;19931;-62
2022/12/28 07:31:19;;;;;;;;;;;5.60;99.90;;;;;;5011293;28;20480;-62
2022/12/28 07:33:48;;;;;;;;;;;5.80;99.90;;;;;;5011745;28;20719;-62
2022/12/28 07:36:17;;;;;;;;;;;5.90;99.90;;;;;;5009356;28;19940;-63
2022/12/28 07:38:45;;;;;;;;;;;6.10;99.90;;;;;;5010474;28;19929;-61
2022/12/28 07:41:14;;;;;;;;;;;6.10;99.90;;;;;;5008339;28;20016;-62
2022/12/28 07:43:42;;;;;;;;;;;6.20;99.90;;;;;;5010643;28;20012;-63
2022/12/28 07:46:10;;;;;;;;;;;6.20;99.90;;;;;;5010642;28;19926;-63
2022/12/28 07:48:39;;;;;;;;;;;6.20;99.90;;;;;;5009845;28;19932;-62
2022/12/28 07:51:09;;;;;;;;;;;6.10;99.90;;;;;;5008379;28;19929;-63
2022/12/28 07:53:38;;;;;;;;;;;6.30;99.90;;;;;;5010336;28;20016;-63
2022/12/28 07:56:06;;;;;;;;;;;6.40;99.90;;;;;;5010305;28;19930;-63
2022/12/28 07:58:35;;;;;;;;;;;6.50;99.90;;;;;;5010379;28;20032;-63
2022/12/28 08:01:04;;;;;;;;;;;6.40;99.90;;;;;;5013955;28;19925;-63
2022/12/28 08:03:32;;;;;;;;;;;6.30;99.90;;;;;;5011665;28;19992;-64
2022/12/28 08:06:05;;;;;;;;;;;6.10;99.90;;;;;;5010447;28;19929;-62
2022/12/28 08:08:34;;;;;;;;;;;6.00;99.90;;;;;;5006000;28;19940;-63
2022/12/28 08:11:04;;;;;;;;;;;5.90;99.90;;;;;;5007499;28;19926;-63
2022/12/28 08:13:33;;;;;;;;;;;5.90;99.90;;;;;;5014268;28;19999;-63
2022/12/28 08:16:01;;;;;;;;;;;5.80;99.90;;;;;;5008812;28;20454;-64
2022/12/28 08:18:29;;;;;;;;;;;5.80;99.90;;;;;;5014962;28;19987;-63
2022/12/28 08:21:00;;;;;;;;;;;5.70;99.90;;;;;;5013901;28;20014;-64
2022/12/28 08:23:28;;;;;;;;;;;5.70;99.90;;;;;;5008593;28;20024;-63
2022/12/28 08:25:56;;;;;;;;;;;5.80;99.90;;;;;;5008912;28;19940;-63
2022/12/28 08:28:25;;;;;;;;;;;5.80;99.90;;;;;;5009582;28;19976;-63
2022/12/28 08:30:52;;;;;;;;;;;5.80;99.90;;;;;;5009325;28;20020;-63
2022/12/28 08:33:20;;;;;;;;;;;5.80;99.90;;;;;;5009731;28;19925;-63
2022/12/28 08:35:48;;;;;;;;;;;5.80;99.90;;;;;;5009620;28;20358;-63
2022/12/28 08:38:15;;;;;;;;;;;5.90;99.90;;;;;;5009288;28;19925;-63
2022/12/28 08:40:43;;;;;;;;;;;5.90;99.90;;;;;;5012153;28;19925;-64
2022/12/28 08:43:11;;;;;;;;;;;5.90;99.90;;;;;;5009684;28;20397;-64
2022/12/28 08:45:40;;;;;;;;;;;6.00;99.90;;;;;;5014645;28;19995;-62
2022/12/28 08:48:07;;;;;;;;;;;6.00;99.90;;;;;;5011762;28;19976;-63
2022/12/28 08:50:35;;;;;;;;;;;6.00;99.90;;;;;;5005044;28;19947;-63
2022/12/28 08:53:03;;;;;;;;;;;6.00;99.90;;;;;;5007785;28;20012;-64
2022/12/28 08:55:30;;;;;;;;;;;6.00;99.90;;;;;;5019935;28;19926;-64
2022/12/28 08:57:58;;;;;;;;;;;6.00;99.90;;;;;;5012104;28;19933;-64
2022/12/28 09:00:26;;;;;;;;;;;6.10;99.90;;;;;;5011143;28;19925;-63
2022/12/28 09:02:58;;;;;;;;;;;6.10;99.90;;;;;;5008471;28;20042;-63
2022/12/28 09:05:25;;;;;;;;;;;6.10;99.90;;;;;;5020922;28;20326;-63
2022/12/28 09:07:53;;;;;;;;;;;6.20;99.90;;;;;;5013657;28;20333;-63
2022/12/28 09:10:26;;;;;;;;;;;6.20;99.90;;;;;;5008691;28;19983;-63
2022/12/28 09:12:54;;;;;;;;;;;6.30;99.90;;;;;;5006585;28;19972;-63
2022/12/28 09:15:21;;;;;;;;;;;6.30;99.90;;;;;;5014480;28;20428;-63
2022/12/28 09:17:49;;;;;;;;;;;6.30;99.90;;;;;;5018395;28;19929;-63
2022/12/28 09:20:18;;;;;;;;;;;6.30;99.90;;;;;;5010317;28;19933;-63
2022/12/28 09:22:46;;;;;;;;;;;6.30;99.90;;;;;;5010483;28;19926;-62
2022/12/28 09:25:13;;;;;;;;;;;6.40;99.90;;;;;;5014114;28;20020;-63
2022/12/28 09:27:41;;;;;;;;;;;6.40;99.90;;;;;;5014236;28;19925;-63
2022/12/28 09:30:09;;;;;;;;;;;6.40;99.90;;;;;;5007610;28;19934;-64
2022/12/28 09:32:37;;;;;;;;;;;6.40;99.90;;;;;;5020117;28;19926;-63
2022/12/28 09:35:05;;;;;;;;;;;6.40;99.90;;;;;;5007363;28;19929;-63
2022/12/28 09:37:34;;;;;;;;;;;6.40;99.90;;;;;;5013279;28;19929;-63
2022/12/28 09:40:01;;;;;;;;;;;6.40;99.90;;;;;;5013095;28;19980;-63
2022/12/28 09:42:30;;;;;;;;;;;6.50;99.90;;;;;;5012433;28;20751;-63
2022/12/28 09:45:01;;;;;;;;;;;6.50;99.90;;;;;;5013726;28;19932;-63
2022/12/28 09:47:33;;;;;;;;;;;6.60;99.90;;;;;;5011538;28;19933;-61
2022/12/28 09:50:05;;;;;;;;;;;6.70;99.90;;;;;;5011494;28;20305;-61
2022/12/28 09:52:36;;;;;;;;;;;7.00;99.90;;;;;;5011058;28;19925;-61
2022/12/28 09:55:07;;;;;;;;;;;7.20;99.90;;;;;;5012581;28;20309;-63
2022/12/28 09:57:36;;;;;;;;;;;7.30;99.90;;;;;;5014299;28;20402;-63
2022/12/28 10:00:05;;;;;;;;;;;7.40;99.90;;;;;;5007068;28;20021;-63
2022/12/28 10:02:34;;;;;;;;;;;7.30;99.90;;;;;;5017281;28;20043;-63
2022/12/28 10:05:02;;;;;;;;;;;7.30;99.90;;;;;;5012591;28;19925;-64
2022/12/28 10:07:30;;;;;;;;;;;7.30;99.90;;;;;;5018319;28;19925;-63
2022/12/28 10:09:59;;;;;;;;;;;7.20;99.90;;;;;;5009891;28;19932;-63
2022/12/28 10:12:30;;;;;;;;;;;7.20;99.90;;;;;;5009696;28;19940;-63
2022/12/28 10:14:58;;;;;;;;;;;7.20;99.90;;;;;;5016169;28;20016;-63
2022/12/28 10:17:29;;;;;;;;;;;7.10;99.90;;;;;;5018298;28;19926;-64
2022/12/28 10:19:57;;;;;;;;;;;7.20;99.90;;;;;;5014954;28;20387;-63
2022/12/28 10:22:28;;;;;;;;;;;7.20;99.90;;;;;;5015709;28;19966;-64
2022/12/28 10:24:56;;;;;;;;;;;7.30;99.90;;;;;;5018264;28;19925;-63
2022/12/28 10:27:30;;;;;;;;;;;7.40;99.90;;;;;;5017557;28;20407;-63
2022/12/28 10:30:00;;;;;;;;;;;7.40;99.90;;;;;;5009309;28;20028;-63
2022/12/28 10:32:38;;;;;;;;;;;7.40;99.90;;;;;;5013278;28;20036;-63
2022/12/28 10:35:06;;;;;;;;;;;7.30;99.90;;;;;;5013009;28;19960;-62
2022/12/28 10:37:36;;;;;;;;;;;7.20;99.90;;;;;;5012772;28;20284;-63
2022/12/28 10:40:06;;;;;;;;;;;7.20;99.90;;;;;;5012448;28;19926;-62
2022/12/28 10:42:36;;;;;;;;;;;7.20;99.90;;;;;;5013137;28;19925;-63
2022/12/28 10:45:06;;;;;;;;;;;7.20;99.90;;;;;;5012676;28;19925;-62
2022/12/28 10:47:35;;;;;;;;;;;7.20;99.90;;;;;;5011486;28;19926;-62
2022/12/28 10:50:04;;;;;;;;;;;7.20;99.90;;;;;;5009039;28;19979;-63
2022/12/28 10:52:58;;;;;;;;;;;7.20;99.90;;;;;;5007827;28;19940;-62
2022/12/28 10:55:26;;;;;;;;;;;7.20;99.90;;;;;;5003701;28;20024;-61
2022/12/28 10:57:55;;;;;;;;;;;7.20;99.90;;;;;;5007049;28;19932;-62
2022/12/28 11:00:52;;;;;;;;;;;7.40;99.90;;;;;;5009587;28;19929;-62
2022/12/28 11:03:23;;;;;;;;;;;7.30;99.90;;;;;;5013383;28;20401;-63
2022/12/28 11:06:06;;;;;;;;;;;7.50;99.90;;;;;;5005067;28;19925;-63
2022/12/28 11:08:34;;;;;;;;;;;7.40;99.90;;;;;;5019437;28;19926;-63
2022/12/28 11:11:02;;;;;;;;;;;7.50;99.90;;;;;;5010829;28;20028;-63
2022/12/28 11:13:32;;;;;;;;;;;7.60;99.90;;;;;;5012978;28;19930;-62
2022/12/28 11:15:59;;;;;;;;;;;7.60;99.90;;;;;;5011600;28;19935;-62
2022/12/28 11:18:27;;;;;;;;;;;7.60;99.90;;;;;;5009426;28;19925;-62
2022/12/28 11:21:02;;;;;;;;;;;7.60;99.90;;;;;;5011701;28;19977;-62
2022/12/28 11:23:33;;;;;;;;;;;7.60;99.90;;;;;;5012046;28;19929;-62
2022/12/28 11:26:00;;;;;;;;;;;7.70;99.90;;;;;;5012001;28;19929;-62
2022/12/28 11:28:28;;;;;;;;;;;7.70;99.90;;;;;;5009766;28;20287;-62
2022/12/28 11:30:59;;;;;;;;;;;7.80;99.90;;;;;;5008463;28;19932;-62
2022/12/28 11:33:28;;;;;;;;;;;8.10;99.90;;;;;;5011096;28;19993;-64
2022/12/28 11:35:56;;;;;;;;;;;8.60;99.90;;;;;;5011977;28;19929;-63
2022/12/28 11:38:36;;;;;;;;;;;8.80;99.90;;;;;;5006093;28;20403;-63
2022/12/28 11:41:04;;;;;;;;;;;9.20;99.90;;;;;;5008372;28;19926;-61
2022/12/28 11:43:38;;;;;;;;;;;9.40;99.90;;;;;;5013284;28;20024;-60
2022/12/28 11:46:28;;;;;;;;;;;9.60;99.90;;;;;;5011691;28;20307;-61
2022/12/28 11:48:58;;;;;;;;;;;10.00;99.90;;;;;;5011086;28;20398;-60
2022/12/28 11:51:27;;;;;;;;;;;10.50;99.90;;;;;;5010804;28;19929;-62
2022/12/28 11:53:57;;;;;;;;;;;10.80;99.90;;;;;;5011742;28;20338;-61
2022/12/28 11:56:25;;;;;;;;;;;10.60;99.90;;;;;;5011569;28;19983;-61
2022/12/28 11:59:14;;;;;;;;;;;10.30;99.90;;;;;;5010069;28;19961;-61
2022/12/28 12:01:45;;;;;;;;;;;9.80;99.90;;;;;;5010369;28;19925;-64
2022/12/28 12:04:37;;;;;;;;;;;9.40;99.90;;;;;;5009632;28;19960;-65
2022/12/28 12:07:15;;;;;;;;;;;9.20;99.90;;;;;;5010980;28;20444;-63
2022/12/28 12:09:44;;;;;;;;;;;9.10;99.90;;;;;;5009639;28;19979;-63
2022/12/28 12:12:30;;;;;;;;;;;9.10;99.90;;;;;;5012780;28;20013;-64
2022/12/28 12:15:02;;;;;;;;;;;9.20;99.90;;;;;;5009902;28;20015;-63
2022/12/28 12:17:32;;;;;;;;;;;9.20;99.90;;;;;;5010809;28;19930;-63
2022/12/28 12:20:17;;;;;;;;;;;9.20;99.90;;;;;;5007942;28;20033;-63
2022/12/28 12:22:50;;;;;;;;;;;9.10;99.90;;;;;;5011076;28;19930;-64
2022/12/28 12:25:21;;;;;;;;;;;9.10;99.90;;;;;;5010892;28;19925;-63
2022/12/28 12:27:50;;;;;;;;;;;9.10;99.90;;;;;;5038221;22;20291;-64
2022/12/28 12:30:19;;;;;;;;;;;9.10;99.90;;;;;;5014124;28;19980;-63
2022/12/28 12:32:49;;;;;;;;;;;9.00;99.90;;;;;;5006224;28;19935;-63
2022/12/28 12:35:19;;;;;;;;;;;9.00;99.90;;;;;;5012176;28;19932;-62
2022/12/28 12:37:54;;;;;;;;;;;8.90;99.90;;;;;;4999730;28;19972;-62
2022/12/28 12:40:45;;;;;;;;;;;8.80;99.90;;;;;;4995915;28;20029;-62
2022/12/28 12:43:21;;;;;;;;;;;8.80;99.90;;;;;;5005273;28;19956;-62
2022/12/28 12:45:54;;;;;;;;;;;8.80;99.90;;;;;;4994156;28;20433;-62
2022/12/28 12:48:31;;;;;;;;;;;8.70;99.90;;;;;;4991974;28;19926;-62
2022/12/28 12:51:11;;;;;;;;;;;8.70;99.90;;;;;;4992365;28;19929;-63
2022/12/28 12:53:47;;;;;;;;;;;8.60;99.90;;;;;;4991929;28;20524;-63
2022/12/28 12:56:29;;;;;;;;;;;8.50;99.90;;;;;;4991497;28;20008;-64
2022/12/28 12:59:01;;;;;;;;;;;8.50;99.90;;;;;;4988004;28;20375;-63
2022/12/28 13:01:32;;;;;;;;;;;8.50;99.90;;;;;;4991029;28;19933;-64
2022/12/28 13:04:05;;;;;;;;;;;8.50;99.90;;;;;;4991563;28;20296;-63
2022/12/28 13:06:34;;;;;;;;;;;8.40;99.90;;;;;;4991513;28;19932;-65
2022/12/28 13:09:06;;;;;;;;;;;8.40;99.90;;;;;;4991601;28;20020;-64
2022/12/28 13:11:36;;;;;;;;;;;8.40;99.90;;;;;;5000004;28;19929;-64
2022/12/28 13:14:04;;;;;;;;;;;8.50;99.90;;;;;;4996083;28;20422;-64
2022/12/28 13:16:32;;;;;;;;;;;8.50;99.90;;;;;;5000520;28;19929;-64
2022/12/28 13:19:01;;;;;;;;;;;8.50;99.90;;;;;;5010230;28;19929;-64
2022/12/28 13:21:29;;;;;;;;;;;8.60;99.90;;;;;;5002205;28;19929;-64
2022/12/28 13:23:57;;;;;;;;;;;8.70;99.90;;;;;;4990312;28;20323;-64
2022/12/28 13:26:27;;;;;;;;;;;8.70;99.90;;;;;;4993424;28;20020;-64
2022/12/28 13:28:57;;;;;;;;;;;8.80;99.90;;;;;;4987528;28;19965;-64
2022/12/28 13:31:28;;;;;;;;;;;8.80;99.90;;;;;;4992297;28;19925;-64
2022/12/28 13:33:57;;;;;;;;;;;8.80;99.90;;;;;;4991830;28;19926;-64
2022/12/28 13:36:24;;;;;;;;;;;8.90;99.90;;;;;;4991200;28;20021;-64
2022/12/28 13:39:13;;;;;;;;;;;8.90;99.90;;;;;;4991209;28;19980;-64
2022/12/28 13:41:47;;;;;;;;;;;8.90;99.90;;;;;;4987917;28;19930;-64
2022/12/28 13:44:35;;;;;;;;;;;8.90;99.90;;;;;;4994757;28;19944;-64
2022/12/28 13:47:06;;;;;;;;;;;8.90;99.90;;;;;;4987737;28;19940;-64
2022/12/28 13:49:36;;;;;;;;;;;8.90;99.90;;;;;;5009309;28;20044;-62
2022/12/28 13:52:10;;;;;;;;;;;9.00;99.90;;;;;;5009718;28;19935;-62
2022/12/28 13:54:38;;;;;;;;;;;8.90;99.90;;;;;;4996488;28;19948;-62
2022/12/28 13:57:07;;;;;;;;;;;8.90;99.90;;;;;;4991186;28;20024;-62
2022/12/28 13:59:55;;;;;;;;;;;9.00;99.90;;;;;;5000607;28;20634;-63
2022/12/28 14:02:24;;;;;;;;;;;9.00;99.90;;;;;;4993016;28;19930;-64
2022/12/28 14:04:52;;;;;;;;;;;9.00;99.90;;;;;;5009558;28;20398;-64
2022/12/28 14:07:23;;;;;;;;;;;9.00;99.90;;;;;;4994692;28;19926;-64
2022/12/28 14:09:51;;;;;;;;;;;9.00;99.90;;;;;;4987860;28;19952;-65
2022/12/28 14:12:20;;;;;;;;;;;9.00;99.90;;;;;;4990963;28;19938;-65
2022/12/28 14:14:48;;;;;;;;;;;9.00;99.90;;;;;;4988553;28;20446;-64
2022/12/28 14:17:16;;;;;;;;;;;9.00;99.90;;;;;;4989279;28;19930;-64
2022/12/28 14:19:44;;;;;;;;;;;9.00;99.90;;;;;;4986827;28;19934;-64
2022/12/28 14:22:28;;;;;;;;;;;8.90;99.90;;;;;;4986103;28;19933;-64
2022/12/28 14:25:04;;;;;;;;;;;8.90;99.90;;;;;;4988058;28;20371;-65
2022/12/28 14:27:35;;;;;;;;;;;8.90;99.90;;;;;;4990295;28;20479;-65
2022/12/28 14:30:04;;;;;;;;;;;8.80;99.90;;;;;;4985154;28;19926;-65
2022/12/28 14:32:33;;;;;;;;;;;8.80;99.90;;;;;;4991546;28;19933;-65
2022/12/28 14:35:15;;;;;;;;;;;8.70;99.90;;;;;;4989524;28;20683;-65
2022/12/28 14:37:45;;;;;;;;;;;8.70;99.90;;;;;;5002436;28;19926;-65
2022/12/28 14:40:17;;;;;;;;;;;8.60;99.90;;;;;;4993915;28;19932;-65
2022/12/28 14:42:49;;;;;;;;;;;8.60;99.90;;;;;;4992607;28;20024;-65
2022/12/28 14:45:35;;;;;;;;;;;8.60;99.90;;;;;;4991175;28;20590;-66
2022/12/28 14:48:36;;;;;;;;;;;8.50;99.90;;;;;;4989048;28;19929;-63
2022/12/28 14:51:06;;;;;;;;;;;8.50;99.90;;;;;;4995880;28;20284;-63
2022/12/28 14:53:34;;;;;;;;;;;8.50;99.90;;;;;;4992394;28;20024;-64
2022/12/28 14:56:03;;;;;;;;;;;8.50;99.90;;;;;;4988739;28;19930;-63
2022/12/28 14:58:45;;;;;;;;;;;8.40;99.90;;;;;;4989738;28;19926;-63
2022/12/28 15:01:18;;;;;;;;;;;8.40;99.90;;;;;;4995615;28;19933;-63
2022/12/28 15:03:49;;;;;;;;;;;8.40;99.90;;;;;;4994478;28;19973;-63
2022/12/28 15:06:18;;;;;;;;;;;8.40;99.90;;;;;;4991899;28;19925;-63
2022/12/28 15:08:47;;;;;;;;;;;8.40;99.90;;;;;;4988924;28;19933;-65
2022/12/28 15:11:16;;;;;;;;;;;8.40;99.90;;;;;;4986900;28;20044;-63
2022/12/28 15:13:46;;;;;;;;;;;8.30;99.90;;;;;;4987149;28;20021;-63
2022/12/28 15:16:14;;;;;;;;;;;8.30;99.90;;;;;;4987980;28;20013;-63
2022/12/28 15:18:44;;;;;;;;;;;8.30;99.90;;;;;;4987976;28;19968;-62